createdAt,value
2022-11-15T00:01:22.366Z,4.06
2022-11-15T00:04:11.233Z,4.06
2022-11-15T00:10:07.841Z,4.03
2022-11-15T00:12:52.958Z,4.00
2022-11-15T00:15:39.681Z,3.99
2022-11-15T00:18:25.110Z,3.99
2022-11-15T00:21:36.033Z,3.99
2022-11-15T00:24:21.977Z,3.94
2022-11-15T00:27:32.199Z,3.95
2022-11-15T00:30:17.781Z,3.90
2022-11-15T00:33:28.996Z,3.92
2022-11-15T00:36:14.363Z,3.90
2022-11-15T00:39:25.191Z,3.90
2022-11-15T00:42:10.227Z,3.89
2022-11-15T00:44:55.905Z,3.88
2022-11-15T00:47:40.841Z,3.84
2022-11-15T00:50:27.061Z,3.85
2022-11-15T00:53:15.918Z,3.86
2022-11-15T00:56:10.508Z,3.85
2022-11-15T00:59:18.383Z,3.85
2022-11-15T01:02:08.564Z,3.83
2022-11-15T01:04:53.528Z,3.81
2022-11-15T01:07:38.908Z,3.78
2022-11-15T01:10:25.093Z,3.71
2022-11-15T01:13:35.323Z,3.71
2022-11-15T01:16:20.611Z,3.66
2022-11-15T01:19:31.511Z,3.63
2022-11-15T01:22:17.586Z,3.62
2022-11-15T01:25:28.220Z,3.60
2022-11-15T01:28:13.390Z,3.57
2022-11-15T01:31:23.967Z,3.56
2022-11-15T01:34:11.377Z,3.53
2022-11-15T01:40:12.056Z,3.46
2022-11-15T01:43:19.644Z,3.40
2022-11-15T01:46:33.180Z,3.40
2022-11-15T01:58:27.826Z,3.24
2022-11-15T02:01:15.666Z,3.25
2022-11-15T02:04:27.511Z,3.28
2022-11-15T02:07:20.603Z,3.21
2022-11-15T02:10:13.578Z,3.22
2022-11-15T02:13:18.737Z,3.22
2022-11-15T02:16:33.253Z,3.21
2022-11-15T02:19:33.768Z,3.17
2022-11-15T02:22:43.878Z,3.14
2022-11-15T02:25:50.765Z,3.11
2022-11-15T02:29:14.316Z,3.06
2022-11-15T02:32:22.564Z,3.01
2022-11-15T02:35:33.333Z,2.99
2022-11-15T02:38:26.836Z,2.96
2022-11-15T02:41:26.677Z,2.94
2022-11-15T02:44:22.990Z,2.91
2022-11-15T02:47:36.254Z,2.88
2022-11-15T02:50:26.399Z,2.86
2022-11-15T02:53:18.509Z,2.83
2022-11-15T02:56:14.162Z,2.78
2022-11-15T02:59:50.973Z,2.77
2022-11-15T03:02:48.111Z,2.73
2022-11-15T03:05:41.837Z,2.71
2022-11-15T03:08:45.324Z,2.68
2022-11-15T03:11:37.239Z,2.67
2022-11-15T03:14:33.451Z,2.62
2022-11-15T03:17:24.482Z,2.60
2022-11-15T03:20:13.329Z,2.56
2022-11-15T03:23:23.694Z,2.53
2022-11-15T03:26:17.584Z,2.49
2022-11-15T03:29:32.742Z,2.48
2022-11-15T03:32:24.247Z,2.42
2022-11-15T03:35:38.886Z,2.39
2022-11-15T03:38:27.784Z,2.31
2022-11-15T03:41:38.643Z,2.34
2022-11-15T03:45:32.389Z,2.31
2022-11-15T03:48:25.539Z,2.27
2022-11-15T03:51:37.020Z,2.27
2022-11-15T03:54:22.513Z,2.21
2022-11-15T03:57:33.631Z,2.19
2022-11-15T04:00:18.911Z,2.16
2022-11-15T04:03:29.963Z,2.16
2022-11-15T04:06:15.150Z,2.11
2022-11-15T04:09:21.954Z,2.11
2022-11-15T04:12:13.378Z,2.11
2022-11-15T04:15:19.298Z,2.09
2022-11-15T04:18:14.813Z,2.04
2022-11-15T04:21:44.562Z,2.09
2022-11-15T04:24:30.027Z,2.05
2022-11-15T04:27:15.979Z,2.05
2022-11-15T04:30:11.552Z,2.04
2022-11-15T04:32:56.950Z,2.05
2022-11-15T04:35:43.518Z,1.98
2022-11-15T04:38:28.882Z,1.98
2022-11-15T04:41:17.495Z,2.01
2022-11-15T04:44:12.011Z,2.03
2022-11-15T04:46:57.703Z,2.03
2022-11-15T04:49:45.002Z,2.05
2022-11-15T04:52:30.477Z,2.01
2022-11-15T04:55:17.241Z,2.07
2022-11-15T04:58:27.674Z,2.12
2022-11-15T05:01:18.851Z,2.12
2022-11-15T05:04:29.789Z,2.21
2022-11-15T05:07:18.450Z,2.27
2022-11-15T05:10:28.882Z,2.34
2022-11-15T05:13:18.872Z,2.33
2022-11-15T05:16:30.035Z,2.39
2022-11-15T05:19:22.409Z,2.38
2022-11-15T05:22:12.328Z,2.43
2022-11-15T05:28:29.183Z,2.45
2022-11-15T05:31:20.649Z,2.46
2022-11-15T05:34:30.741Z,2.48
2022-11-15T05:37:20.300Z,2.49
2022-11-15T05:40:32.394Z,2.49
2022-11-15T05:43:22.595Z,2.51
2022-11-15T05:46:11.705Z,2.56
2022-11-15T05:48:59.073Z,2.63
2022-11-15T05:51:47.784Z,2.70
2022-11-15T05:54:34.573Z,2.72
2022-11-15T05:57:21.485Z,2.75
2022-11-15T06:00:10.936Z,2.80
2022-11-15T06:02:56.059Z,2.83
2022-11-15T06:05:42.811Z,2.83
2022-11-15T06:08:28.392Z,2.86
2022-11-15T06:11:23.582Z,2.86
2022-11-15T06:14:34.147Z,2.99
2022-11-15T06:17:25.864Z,3.02
2022-11-15T06:20:16.864Z,3.06
2022-11-15T06:23:20.780Z,3.10
2022-11-15T06:26:32.613Z,3.20
2022-11-15T06:29:20.689Z,3.23
2022-11-15T06:32:31.515Z,3.33
2022-11-15T06:35:19.932Z,3.37
2022-11-15T06:38:30.955Z,3.44
2022-11-15T06:41:25.929Z,3.49
2022-11-15T06:44:14.081Z,3.50
2022-11-15T06:46:59.770Z,3.58
2022-11-15T06:49:49.267Z,3.66
2022-11-15T06:52:34.563Z,3.71
2022-11-15T06:55:20.197Z,3.72
2022-11-15T06:58:13.102Z,3.81
2022-11-15T07:01:23.337Z,3.87
2022-11-15T07:04:15.476Z,3.93
2022-11-15T07:07:18.869Z,3.94
2022-11-15T07:10:18.444Z,4.02
2022-11-15T07:13:34.705Z,4.10
2022-11-15T07:16:24.437Z,4.15
2022-11-15T07:19:38.719Z,4.22
2022-11-15T07:22:27.703Z,4.25
2022-11-15T07:25:18.910Z,4.28
2022-11-15T07:28:39.916Z,4.39
2022-11-15T07:31:26.863Z,4.43
2022-11-15T07:34:12.364Z,4.45
2022-11-15T07:36:58.404Z,4.53
2022-11-15T07:39:44.513Z,4.51
2022-11-15T07:42:51.518Z,4.63
2022-11-15T07:45:45.400Z,4.64
2022-11-15T07:48:42.725Z,4.69
2022-11-15T07:51:30.069Z,4.77
2022-11-15T07:54:15.631Z,4.78
2022-11-15T07:57:27.650Z,4.85
2022-11-15T08:00:17.556Z,4.89
2022-11-15T08:03:28.540Z,4.94
2022-11-15T08:06:14.610Z,4.96
2022-11-15T08:09:25.123Z,4.99
2022-11-15T08:12:18.698Z,5.05
2022-11-15T08:15:29.753Z,5.08
2022-11-15T08:18:17.607Z,5.12
2022-11-15T08:21:28.693Z,5.17
2022-11-15T08:24:14.517Z,5.19
2022-11-15T08:26:59.884Z,5.21
2022-11-15T08:29:46.488Z,5.26
2022-11-15T08:32:32.803Z,5.28
2022-11-15T08:35:24.909Z,5.33
2022-11-15T08:38:16.039Z,5.33
2022-11-15T08:41:29.191Z,5.35
2022-11-15T08:44:15.178Z,5.38
2022-11-15T08:47:23.044Z,5.40
2022-11-15T08:50:18.967Z,5.46
2022-11-15T08:53:29.244Z,5.50
2022-11-15T08:56:18.842Z,5.52
2022-11-15T08:59:29.388Z,5.57
2022-11-15T09:02:18.825Z,5.60
2022-11-15T09:05:20.635Z,5.63
2022-11-15T09:08:40.694Z,5.68
2022-11-15T09:11:22.862Z,5.70
2022-11-15T09:14:18.069Z,5.75
2022-11-15T09:20:53.548Z,5.77
2022-11-15T09:23:51.844Z,5.89
2022-11-15T09:30:28.093Z,5.93
2022-11-15T09:33:51.577Z,6.03
2022-11-15T09:36:50.105Z,6.06
2022-11-15T09:39:58.751Z,6.12
2022-11-15T09:46:44.387Z,6.24
2022-11-15T09:49:59.125Z,6.22
2022-11-15T09:52:49.843Z,6.30
2022-11-15T09:55:52.177Z,6.29
2022-11-15T09:58:54.208Z,6.39
2022-11-15T10:09:28.761Z,6.48
2022-11-15T10:12:27.951Z,6.47
2022-11-15T10:15:45.271Z,6.55
2022-11-15T10:18:24.529Z,6.54
2022-11-15T10:21:25.435Z,6.60
2022-11-15T10:23:57.998Z,6.57
2022-11-15T10:26:35.115Z,6.63
2022-11-15T10:29:29.571Z,6.71
2022-11-15T10:32:02.473Z,6.66
2022-11-15T10:35:01.193Z,6.72
2022-11-15T10:37:52.821Z,6.77
2022-11-15T10:40:28.603Z,6.79
2022-11-15T10:43:29.930Z,6.92
2022-11-15T10:45:58.729Z,6.93
2022-11-15T10:48:43.753Z,6.99
2022-11-15T10:51:30.936Z,7.01
2022-11-15T10:54:02.284Z,7.05
2022-11-15T10:56:44.078Z,7.08
2022-11-15T10:59:40.262Z,7.21
2022-11-15T11:02:35.185Z,7.25
2022-11-15T11:05:29.275Z,7.29
2022-11-15T11:08:37.559Z,7.32
2022-11-15T11:11:50.096Z,7.41
2022-11-15T11:14:27.178Z,7.45
2022-11-15T11:16:57.518Z,7.52
2022-11-15T11:19:57.600Z,7.56
2022-11-15T11:22:35.591Z,7.60
2022-11-15T11:25:46.433Z,7.65
2022-11-15T11:28:41.344Z,7.63
2022-11-15T11:31:55.292Z,7.70
2022-11-15T11:34:56.272Z,7.71
2022-11-15T11:46:42.866Z,7.86
2022-11-15T11:54:03.488Z,7.96
2022-11-15T11:56:53.224Z,7.98
2022-11-15T11:59:45.462Z,8.01
2022-11-15T12:03:27.766Z,8.06
2022-11-15T12:20:58.460Z,8.16
2022-11-15T12:24:04.446Z,8.19
2022-11-15T12:40:44.924Z,8.31
2022-11-15T12:43:47.529Z,8.35
2022-11-15T12:47:39.406Z,8.38
2022-11-15T12:50:52.479Z,8.43
2022-11-15T12:53:39.616Z,8.46
2022-11-15T13:00:52.371Z,8.61
2022-11-15T13:03:36.956Z,8.61
2022-11-15T13:06:52.105Z,8.70
2022-11-15T13:09:36.343Z,8.75
2022-11-15T13:12:30.841Z,8.80
2022-11-15T13:19:48.997Z,8.86
2022-11-15T13:27:32.985Z,8.97
2022-11-15T13:30:58.591Z,8.93
2022-11-15T13:42:05.759Z,9.08
2022-11-15T13:49:35.723Z,9.11
2022-11-15T13:52:56.389Z,9.16
2022-11-15T13:55:49.900Z,9.19
2022-11-15T13:58:24.398Z,9.19
2022-11-15T14:17:45.677Z,9.32
2022-11-15T14:20:47.383Z,9.32
2022-11-15T14:23:44.072Z,9.33
2022-11-15T14:26:30.526Z,9.31
2022-11-15T14:29:00.788Z,9.27
2022-11-15T14:31:53.589Z,9.23
2022-11-15T14:43:40.878Z,9.26
2022-11-15T14:46:38.761Z,9.21
2022-11-15T15:08:52.161Z,8.98
2022-11-15T15:14:55.295Z,8.86
2022-11-15T15:17:51.874Z,8.82
2022-11-15T15:27:54.183Z,8.61
2022-11-15T15:30:39.282Z,8.50
2022-11-15T15:33:49.769Z,8.50
2022-11-15T15:37:33.650Z,8.43
2022-11-15T15:40:02.334Z,8.35
2022-11-15T15:42:33.396Z,8.30
2022-11-15T15:54:53.311Z,8.11
2022-11-15T16:14:29.842Z,7.85
2022-11-15T16:16:57.856Z,7.80
2022-11-15T16:19:55.311Z,7.82
2022-11-15T16:22:30.717Z,7.78
2022-11-15T16:24:59.133Z,7.76
2022-11-15T16:27:32.945Z,7.84
2022-11-15T16:30:00.529Z,7.86
2022-11-15T16:32:34.372Z,7.85
2022-11-15T16:35:44.051Z,7.91
2022-11-15T16:38:30.972Z,7.85
2022-11-15T16:41:02.152Z,7.97
2022-11-15T16:43:33.208Z,7.94
2022-11-15T16:53:52.061Z,8.01
2022-11-15T16:56:05.793Z,7.96
2022-11-15T16:58:54.741Z,8.00
2022-11-15T17:04:33.369Z,8.07
2022-11-15T17:10:55.064Z,8.10
2022-11-15T17:13:49.539Z,8.16
2022-11-15T17:23:34.767Z,8.15
2022-11-15T17:26:40.234Z,8.24
2022-11-15T17:29:48.134Z,8.21
2022-11-15T17:36:23.032Z,8.25
2022-11-15T17:40:19.401Z,8.23
2022-11-15T17:42:48.197Z,8.17
2022-11-15T18:27:40.753Z,8.18
2022-11-15T19:39:05.200Z,8.84
2022-11-15T20:02:57.033Z,8.74
